createdAt,value
2018-09-22T00:01:06.763Z,75.40
2018-09-22T00:03:34.796Z,75.12
2018-09-22T00:06:03.292Z,75.75
2018-09-22T00:08:31.884Z,75.73
2018-09-22T00:10:59.887Z,75.71
2018-09-22T00:13:29.060Z,75.57
2018-09-22T00:15:57.069Z,75.56
2018-09-22T00:18:25.385Z,75.66
2018-09-22T00:20:53.397Z,75.63
2018-09-22T00:23:21.514Z,75.94
2018-09-22T00:25:49.536Z,75.90
2018-09-22T00:28:18.182Z,75.05
2018-09-22T00:30:46.207Z,75.34
2018-09-22T00:33:14.232Z,75.39
2018-09-22T00:35:42.244Z,75.57
2018-09-22T00:38:10.264Z,75.87
2018-09-22T00:40:38.288Z,75.30
2018-09-22T00:43:06.528Z,75.52
2018-09-22T00:45:34.559Z,75.24
2018-09-22T00:48:02.573Z,75.69
2018-09-22T00:50:30.594Z,75.39
2018-09-22T00:52:58.616Z,75.92
2018-09-22T00:55:27.626Z,75.53
2018-09-22T00:57:56.628Z,75.74
2018-09-22T01:00:24.636Z,75.63
2018-09-22T01:02:53.268Z,75.27
2018-09-22T01:05:21.437Z,75.68
2018-09-22T01:07:49.464Z,75.85
2018-09-22T01:10:17.473Z,75.54
2018-09-22T01:12:45.488Z,75.70
2018-09-22T01:15:13.582Z,75.84
2018-09-22T01:17:41.603Z,75.50
2018-09-22T01:20:09.618Z,75.49
2018-09-22T01:22:37.790Z,75.76
2018-09-22T01:25:06.634Z,75.18
2018-09-22T01:27:34.644Z,75.56
2018-09-22T01:30:02.854Z,75.08
2018-09-22T01:32:30.859Z,75.28
2018-09-22T01:34:58.878Z,75.56
2018-09-22T01:37:27.525Z,75.55
2018-09-22T01:39:55.551Z,75.70
2018-09-22T01:42:23.571Z,74.98
2018-09-22T01:44:51.579Z,75.28
2018-09-22T01:47:19.591Z,75.38
2018-09-22T01:49:47.609Z,75.76
2018-09-22T01:52:15.620Z,75.21
2018-09-22T01:54:43.634Z,74.95
2018-09-22T01:57:11.836Z,75.57
2018-09-22T01:59:39.847Z,75.30
2018-09-22T02:02:07.873Z,75.40
2018-09-22T02:04:35.884Z,75.13
2018-09-22T02:07:04.825Z,75.60
2018-09-22T02:09:32.837Z,75.02
2018-09-22T02:12:00.863Z,75.07
2018-09-22T02:14:28.872Z,75.41
2018-09-22T02:16:56.889Z,75.75
2018-09-22T02:19:24.900Z,74.84
2018-09-22T02:21:52.917Z,74.63
2018-09-22T02:24:21.283Z,74.72
2018-09-22T02:26:49.299Z,74.07
2018-09-22T02:29:17.308Z,75.09
2018-09-22T02:31:45.509Z,74.67
2018-09-22T02:34:13.508Z,74.91
2018-09-22T02:36:41.519Z,74.31
2018-09-22T02:39:10.555Z,75.02
2018-09-22T02:41:38.568Z,74.10
2018-09-22T02:44:06.788Z,74.49
2018-09-22T02:46:35.180Z,74.93
2018-09-22T02:49:03.195Z,74.43
2018-09-22T02:51:31.228Z,74.77
2018-09-22T02:53:59.413Z,74.74
2018-09-22T02:56:27.423Z,74.39
2018-09-22T02:58:55.550Z,75.01
2018-09-22T03:01:23.559Z,74.60
2018-09-22T03:03:51.582Z,74.75
2018-09-22T03:06:19.671Z,74.81
2018-09-22T03:08:47.711Z,74.91
2018-09-22T03:11:15.708Z,74.41
2018-09-22T03:13:43.739Z,74.86
2018-09-22T03:16:11.772Z,75.43
2018-09-22T03:18:39.835Z,74.93
2018-09-22T03:21:08.164Z,74.92
2018-09-22T03:23:36.176Z,74.88
2018-09-22T03:26:04.985Z,75.42
2018-09-22T03:28:33.313Z,75.07
2018-09-22T03:31:01.328Z,74.96
2018-09-22T03:33:29.356Z,75.07
2018-09-22T03:35:57.524Z,74.96
2018-09-22T03:38:25.547Z,75.19
2018-09-22T03:40:53.559Z,75.12
2018-09-22T03:43:21.584Z,75.31
2018-09-22T03:45:49.592Z,75.11
2018-09-22T03:48:17.612Z,75.54
2018-09-22T03:50:45.648Z,75.06
2018-09-22T03:53:13.701Z,75.30
2018-09-22T03:55:41.714Z,74.95
2018-09-22T03:58:09.747Z,75.66
2018-09-22T04:00:38.242Z,74.78
2018-09-22T04:03:06.067Z,75.28
2018-09-22T04:05:34.080Z,75.27
2018-09-22T04:08:02.147Z,74.83
2018-09-22T04:10:30.167Z,74.79
2018-09-22T04:12:59.312Z,74.80
2018-09-22T04:15:27.566Z,74.43
2018-09-22T04:17:55.680Z,75.00
2018-09-22T04:20:23.746Z,73.99
2018-09-22T04:22:52.094Z,74.32
2018-09-22T04:25:20.125Z,74.83
2018-09-22T04:27:48.136Z,74.56
2018-09-22T04:30:16.322Z,74.47
2018-09-22T04:32:44.351Z,74.52
2018-09-22T04:35:12.381Z,74.89
2018-09-22T04:37:40.400Z,74.63
2018-09-22T04:40:08.581Z,74.45
2018-09-22T04:42:36.663Z,74.47
2018-09-22T04:45:05.051Z,74.58
2018-09-22T04:47:33.118Z,75.26
2018-09-22T04:50:01.136Z,74.32
2018-09-22T04:52:29.173Z,74.64
2018-09-22T04:54:57.204Z,74.48
2018-09-22T04:57:25.224Z,74.54
2018-09-22T04:59:53.490Z,74.44
2018-09-22T05:02:21.529Z,75.00
2018-09-22T05:04:49.619Z,73.97
2018-09-22T05:07:17.668Z,74.04
2018-09-22T05:09:45.693Z,74.29
2018-09-22T05:12:13.868Z,73.98
2018-09-22T05:14:41.880Z,73.95
2018-09-22T05:17:10.031Z,73.59
2018-09-22T05:19:38.000Z,73.85
2018-09-22T05:22:07.300Z,72.92
2018-09-22T05:24:35.340Z,73.76
2018-09-22T05:27:03.367Z,73.84
2018-09-22T05:29:31.556Z,73.07
2018-09-22T05:31:59.573Z,73.00
2018-09-22T05:34:27.679Z,73.62
2018-09-22T05:36:55.767Z,73.37
2018-09-22T05:39:23.827Z,73.27
2018-09-22T05:41:58.227Z,73.29
2018-09-22T05:44:26.235Z,73.68
2018-09-22T05:46:54.268Z,73.75
2018-09-22T05:49:22.565Z,73.43
2018-09-22T05:51:50.623Z,73.37
2018-09-22T05:54:18.643Z,73.25
2018-09-22T05:56:46.800Z,73.12
2018-09-22T05:59:14.839Z,73.17
2018-09-22T06:01:43.224Z,73.15
2018-09-22T06:04:11.240Z,73.17
2018-09-22T06:06:39.255Z,72.62
2018-09-22T06:09:08.568Z,73.19
2018-09-22T06:11:37.012Z,72.70
2018-09-22T06:14:05.140Z,73.78
2018-09-22T06:16:33.482Z,73.31
2018-09-22T06:19:01.508Z,73.01
2018-09-22T06:21:29.531Z,72.80
2018-09-22T06:23:57.704Z,72.89
2018-09-22T06:26:25.736Z,72.95
2018-09-22T06:28:53.805Z,72.34
2018-09-22T06:31:21.804Z,72.38
2018-09-22T06:33:49.832Z,72.09
2018-09-22T06:36:18.047Z,72.97
2018-09-22T06:38:46.064Z,72.30
2018-09-22T06:41:14.188Z,72.15
2018-09-22T06:43:42.211Z,72.01
2018-09-22T06:46:10.245Z,72.48
2018-09-22T06:48:38.257Z,72.23
2018-09-22T06:51:06.355Z,72.35
2018-09-22T06:53:34.732Z,72.21
2018-09-22T06:56:02.752Z,72.18
2018-09-22T06:58:30.780Z,72.31
2018-09-22T07:00:58.788Z,72.58
2018-09-22T07:03:26.805Z,71.61
2018-09-22T07:05:54.820Z,71.64
2018-09-22T07:08:22.840Z,72.15
2018-09-22T07:10:51.043Z,71.64
2018-09-22T07:13:19.069Z,71.90
2018-09-22T07:15:47.091Z,71.90
2018-09-22T07:18:15.116Z,72.40
2018-09-22T07:20:48.552Z,71.89
2018-09-22T07:23:17.724Z,71.50
2018-09-22T07:25:46.309Z,70.90
2018-09-22T07:28:15.136Z,71.63
2018-09-22T07:30:43.231Z,71.25
2018-09-22T07:33:11.352Z,71.39
2018-09-22T07:35:39.649Z,70.52
2018-09-22T07:38:08.339Z,71.54
2018-09-22T07:40:36.347Z,70.60
2018-09-22T07:43:22.654Z,70.92
2018-09-22T07:45:50.821Z,70.31
2018-09-22T07:48:18.800Z,70.74
2018-09-22T07:50:46.808Z,69.93
2018-09-22T07:53:15.021Z,69.84
2018-09-22T07:55:43.147Z,69.81
2018-09-22T07:58:11.165Z,68.97
2018-09-22T08:00:39.188Z,69.48
2018-09-22T08:03:07.196Z,69.32
2018-09-22T08:05:35.211Z,69.00
2018-09-22T08:08:03.229Z,68.43
2018-09-22T08:10:31.251Z,68.50
2018-09-22T08:12:59.839Z,68.53
2018-09-22T08:15:27.859Z,68.32
2018-09-22T08:17:55.887Z,68.43
2018-09-22T08:20:23.919Z,68.68
2018-09-22T08:22:51.933Z,68.26
2018-09-22T08:25:20.032Z,67.40
2018-09-22T08:27:47.977Z,66.85
2018-09-22T08:30:15.991Z,66.60
2018-09-22T08:32:44.003Z,66.72
2018-09-22T08:35:12.023Z,66.54
2018-09-22T08:37:40.043Z,65.75
2018-09-22T08:40:08.308Z,66.99
2018-09-22T08:42:36.330Z,64.57
2018-09-22T08:45:04.594Z,65.04
2018-09-22T08:47:32.616Z,64.76
2018-09-22T08:50:00.972Z,64.67
2018-09-22T08:52:28.929Z,64.24
2018-09-22T08:54:57.101Z,64.94
2018-09-22T08:57:25.110Z,63.70
2018-09-22T08:59:53.136Z,63.44
2018-09-22T09:02:21.387Z,62.66
2018-09-22T09:04:49.418Z,62.06
2018-09-22T09:07:17.427Z,62.26
2018-09-22T09:09:46.318Z,62.47
2018-09-22T09:12:15.128Z,61.99
2018-09-22T09:14:43.160Z,61.84
2018-09-22T09:17:11.178Z,61.39
2018-09-22T09:19:39.196Z,61.79
2018-09-22T09:22:07.216Z,61.66
2018-09-22T09:24:35.245Z,61.86
2018-09-22T09:27:03.279Z,61.57
2018-09-22T09:29:31.904Z,61.66
2018-09-22T09:32:00.149Z,61.87
2018-09-22T09:34:28.171Z,61.39
2018-09-22T09:36:56.176Z,62.06
2018-09-22T09:39:24.351Z,61.76
2018-09-22T09:41:52.367Z,62.07
2018-09-22T09:44:20.412Z,62.07
2018-09-22T09:46:48.586Z,61.45
2018-09-22T09:49:16.604Z,62.46
2018-09-22T09:51:44.604Z,62.69
2018-09-22T09:54:12.640Z,63.09
2018-09-22T09:56:40.648Z,61.20
2018-09-22T09:59:08.787Z,61.54
2018-09-22T10:01:36.975Z,61.28
2018-09-22T10:04:04.996Z,61.46
2018-09-22T10:06:33.012Z,61.03
2018-09-22T10:09:01.044Z,61.16
2018-09-22T10:11:29.056Z,60.84
2018-09-22T10:13:57.198Z,60.70
2018-09-22T10:16:25.203Z,60.74
2018-09-22T10:18:53.219Z,61.12
2018-09-22T10:21:21.247Z,60.38
2018-09-22T10:23:49.877Z,59.71
2018-09-22T10:26:18.011Z,58.96
2018-09-22T10:28:46.087Z,59.38
2018-09-22T10:31:14.063Z,59.65
2018-09-22T10:33:42.112Z,59.56
2018-09-22T10:36:10.128Z,58.97
2018-09-22T10:38:38.136Z,59.64
2018-09-22T10:41:06.195Z,59.38
2018-09-22T10:43:34.366Z,58.21
2018-09-22T10:46:02.407Z,58.42
2018-09-22T10:48:30.420Z,59.10
2018-09-22T10:50:58.444Z,57.17
2018-09-22T10:53:26.464Z,57.65
2018-09-22T10:55:54.467Z,57.22
2018-09-22T10:58:22.679Z,56.20
2018-09-22T11:00:50.711Z,56.08
2018-09-22T11:03:18.773Z,56.87
2018-09-22T11:05:46.735Z,55.17
2018-09-22T11:08:14.761Z,56.04
2018-09-22T11:10:42.825Z,54.97
2018-09-22T11:13:10.815Z,55.39
2018-09-22T11:15:38.836Z,55.39
2018-09-22T11:18:07.108Z,54.42
2018-09-22T11:20:35.132Z,54.62
2018-09-22T11:23:03.291Z,54.63
2018-09-22T11:25:31.295Z,54.52
2018-09-22T11:27:59.305Z,54.49
2018-09-22T11:30:27.474Z,55.20
2018-09-22T11:32:55.475Z,54.87
2018-09-22T11:35:23.479Z,54.61
2018-09-22T11:37:51.487Z,55.24
2018-09-22T11:40:19.503Z,54.86
2018-09-22T11:42:48.063Z,54.53
2018-09-22T11:45:16.231Z,53.15
2018-09-22T11:47:45.235Z,53.82
2018-09-22T11:50:13.880Z,53.32
2018-09-22T11:52:41.884Z,53.28
2018-09-22T11:55:09.889Z,52.40
2018-09-22T11:57:38.112Z,52.19
2018-09-22T12:00:06.236Z,53.72
2018-09-22T12:02:34.256Z,52.63
2018-09-22T12:05:03.092Z,52.91
2018-09-22T12:07:31.111Z,52.55
2018-09-22T12:09:59.131Z,52.53
2018-09-22T12:12:27.151Z,52.40
2018-09-22T12:14:55.339Z,52.37
2018-09-22T12:17:23.343Z,51.94
2018-09-22T12:19:51.365Z,52.00
2018-09-22T12:22:20.357Z,52.75
2018-09-22T12:24:48.373Z,51.63
2018-09-22T12:27:16.402Z,52.09
2018-09-22T12:29:44.552Z,52.37
2018-09-22T12:32:12.560Z,52.93
2018-09-22T12:34:40.563Z,52.64
2018-09-22T12:37:08.611Z,53.11
2018-09-22T12:39:36.636Z,54.38
2018-09-22T12:42:05.143Z,53.44
2018-09-22T12:44:33.887Z,53.52
2018-09-22T12:47:01.904Z,53.81
2018-09-22T12:49:29.923Z,54.28
2018-09-22T12:51:57.950Z,53.04
2018-09-22T12:54:26.856Z,52.74
2018-09-22T12:56:54.867Z,53.78
2018-09-22T12:59:22.889Z,52.36
2018-09-22T13:01:50.895Z,53.28
2018-09-22T13:04:18.919Z,53.69
2018-09-22T13:06:47.096Z,53.73
2018-09-22T13:09:15.116Z,53.87
2018-09-22T13:11:43.132Z,52.61
2018-09-22T13:14:11.294Z,52.63
2018-09-22T13:16:39.311Z,53.04
2018-09-22T13:19:07.407Z,53.32
2018-09-22T13:21:36.091Z,53.27
2018-09-22T13:24:04.679Z,52.62
2018-09-22T13:26:32.687Z,51.55
2018-09-22T13:29:00.728Z,52.12
2018-09-22T13:31:28.751Z,52.15
2018-09-22T13:33:56.852Z,52.34
2018-09-22T13:36:24.855Z,52.25
2018-09-22T13:38:52.876Z,52.44
2018-09-22T13:41:21.468Z,52.01
2018-09-22T13:43:49.485Z,53.03
2018-09-22T13:46:17.548Z,55.35
2018-09-22T13:48:45.558Z,56.92
2018-09-22T13:51:13.559Z,61.06
2018-09-22T13:53:41.616Z,62.50
2018-09-22T13:56:09.664Z,64.78
2018-09-22T13:58:37.631Z,66.57
2018-09-22T14:01:05.644Z,67.09
2018-09-22T14:03:33.723Z,67.75
2018-09-22T14:06:01.720Z,67.84
2018-09-22T14:08:29.735Z,68.90
2018-09-22T14:14:04.715Z,69.49
2018-09-22T14:16:33.523Z,70.52
2018-09-22T14:19:01.528Z,70.43
2018-09-22T14:21:29.624Z,70.89
2018-09-22T14:23:57.568Z,71.35
2018-09-22T14:26:25.596Z,70.85
2018-09-22T14:28:53.747Z,71.07
2018-09-22T14:31:23.376Z,71.53
2018-09-22T14:33:51.363Z,72.18
2018-09-22T14:36:19.535Z,71.62
2018-09-22T14:38:47.712Z,72.31
2018-09-22T14:41:15.712Z,72.45
2018-09-22T14:43:43.727Z,71.91
2018-09-22T14:46:11.731Z,72.17
2018-09-22T14:48:39.739Z,72.08
2018-09-22T14:51:07.740Z,72.55
2018-09-22T14:53:35.736Z,72.35
2018-09-22T14:56:03.747Z,72.45
2018-09-22T14:58:31.767Z,72.68
2018-09-22T15:00:59.762Z,72.70
2018-09-22T15:03:27.772Z,72.89
2018-09-22T15:05:55.775Z,73.21
2018-09-22T15:08:23.781Z,73.67
2018-09-22T15:10:52.384Z,73.67
2018-09-22T15:13:20.391Z,72.79
2018-09-22T15:15:49.295Z,73.68
2018-09-22T15:18:17.323Z,73.05
2018-09-22T15:20:45.391Z,74.17
2018-09-22T15:23:13.343Z,73.72
2018-09-22T15:25:41.520Z,74.14
2018-09-22T15:28:09.527Z,74.19
2018-09-22T15:30:37.606Z,74.54
2018-09-22T15:33:05.805Z,74.69
2018-09-22T15:35:33.997Z,74.93
2018-09-22T15:38:02.148Z,74.53
2018-09-22T15:40:31.011Z,74.19
2018-09-22T15:42:59.015Z,74.46
2018-09-22T15:45:27.296Z,75.27
2018-09-22T15:47:55.755Z,74.49
2018-09-22T15:50:23.756Z,74.76
2018-09-22T15:52:52.411Z,74.64
2018-09-22T15:55:20.448Z,75.14
2018-09-22T15:57:49.464Z,74.78
2018-09-22T16:00:17.476Z,75.21
2018-09-22T16:02:45.648Z,75.49
2018-09-22T16:05:13.659Z,74.49
2018-09-22T16:07:41.664Z,75.27
2018-09-22T16:10:09.832Z,74.54
2018-09-22T16:12:38.415Z,74.79
2018-09-22T16:15:06.451Z,75.21
2018-09-22T16:17:34.467Z,74.38
2018-09-22T16:20:02.467Z,74.79
2018-09-22T16:22:30.480Z,75.30
2018-09-22T16:24:58.496Z,74.75
2018-09-22T16:27:26.527Z,74.99
2018-09-22T16:29:54.684Z,75.12
2018-09-22T16:32:22.696Z,75.56
2018-09-22T16:34:50.689Z,75.13
2018-09-22T16:37:18.719Z,74.92
2018-09-22T16:39:46.892Z,75.47
2018-09-22T16:42:14.907Z,75.36
2018-09-22T16:44:42.917Z,75.42
2018-09-22T16:47:11.031Z,74.73
2018-09-22T16:49:39.091Z,74.44
2018-09-22T16:52:07.056Z,74.75
2018-09-22T16:54:35.095Z,75.23
2018-09-22T16:57:03.186Z,74.97
2018-09-22T16:59:31.279Z,75.14
2018-09-22T17:01:59.288Z,75.08
2018-09-22T17:04:27.288Z,74.49
2018-09-22T17:06:55.352Z,74.69
2018-09-22T17:09:23.470Z,74.88
2018-09-22T17:11:51.435Z,75.14
2018-09-22T17:14:19.489Z,74.76
2018-09-22T17:16:47.488Z,74.59
2018-09-22T17:19:15.555Z,74.49
2018-09-22T17:21:43.723Z,74.94
2018-09-22T17:24:11.803Z,75.08
2018-09-22T17:26:39.818Z,75.00
2018-09-22T17:29:07.831Z,74.96
2018-09-22T17:31:35.887Z,74.77
2018-09-22T17:34:04.600Z,74.57
2018-09-22T17:36:32.644Z,75.55
2018-09-22T17:39:00.655Z,75.60
2018-09-22T17:41:28.670Z,75.46
2018-09-22T17:43:56.679Z,75.74
2018-09-22T17:46:24.703Z,75.73
2018-09-22T17:48:52.716Z,76.35
2018-09-22T17:51:21.056Z,76.15
2018-09-22T17:53:49.075Z,76.23
2018-09-22T17:56:17.107Z,76.48
2018-09-22T17:58:46.506Z,76.22
2018-09-22T18:01:14.555Z,76.42
2018-09-22T18:03:42.565Z,76.57
2018-09-22T18:06:10.586Z,76.63
2018-09-22T18:08:38.895Z,76.52
2018-09-22T18:11:07.050Z,76.75
2018-09-22T18:13:35.067Z,76.60
2018-09-22T18:16:03.287Z,76.27
2018-09-22T18:18:31.298Z,76.88
2018-09-22T18:20:59.315Z,77.14
2018-09-22T18:23:27.553Z,76.93
2018-09-22T18:25:55.563Z,77.22
2018-09-22T18:28:23.652Z,77.18
2018-09-22T18:30:51.724Z,77.44
2018-09-22T18:33:20.613Z,77.27
2018-09-22T18:35:48.615Z,77.60
2018-09-22T18:38:16.759Z,78.22
2018-09-22T18:40:45.656Z,77.72
2018-09-22T18:43:13.663Z,77.80
2018-09-22T18:45:41.671Z,77.69
2018-09-22T18:48:09.709Z,78.33
2018-09-22T18:50:37.725Z,77.61
2018-09-22T18:53:05.776Z,77.83
2018-09-22T18:55:34.673Z,78.13
2018-09-22T18:58:02.684Z,78.45
2018-09-22T19:00:30.697Z,78.03
2018-09-22T19:03:00.376Z,77.92
2018-09-22T19:05:28.388Z,78.57
2018-09-22T19:07:56.463Z,78.60
2018-09-22T19:10:24.500Z,78.16
2018-09-22T19:12:53.164Z,78.78
2018-09-22T19:15:51.404Z,78.36
2018-09-22T19:18:29.596Z,78.58
2018-09-22T19:21:04.556Z,78.38
2018-09-22T19:23:41.272Z,78.64
2018-09-22T19:26:14.375Z,78.36
2018-09-22T19:29:02.644Z,78.73
2018-09-22T19:33:36.832Z,78.94
2018-09-22T19:36:09.959Z,78.57
2018-09-22T19:38:45.136Z,78.97
2018-09-22T19:41:20.355Z,79.24
2018-09-22T19:45:55.663Z,79.19
2018-09-22T19:48:45.463Z,79.41
2018-09-22T19:51:15.879Z,79.13
2018-09-22T19:53:44.728Z,79.09
2018-09-22T19:56:12.752Z,79.30
2018-09-22T19:58:40.767Z,79.21
2018-09-22T20:01:09.015Z,78.65
2018-09-22T20:03:37.636Z,78.88
2018-09-22T20:06:05.684Z,79.06
2018-09-22T20:08:33.707Z,79.16
2018-09-22T20:11:02.351Z,79.05
2018-09-22T20:13:30.376Z,78.90
2018-09-22T20:15:58.551Z,79.08
2018-09-22T20:18:26.594Z,79.14
2018-09-22T20:20:54.621Z,78.36
2018-09-22T20:23:22.648Z,78.94
2018-09-22T20:25:50.719Z,78.80
2018-09-22T20:28:18.733Z,79.14
2018-09-22T20:30:46.753Z,78.77
2018-09-22T20:33:14.826Z,78.97
2018-09-22T20:35:43.224Z,78.28
2018-09-22T20:38:11.247Z,78.43
2018-09-22T20:40:39.248Z,78.33
2018-09-22T20:43:07.312Z,78.22
2018-09-22T20:45:35.339Z,78.05
2018-09-22T20:48:03.363Z,77.89
2018-09-22T20:50:31.381Z,78.09
2018-09-22T20:52:59.403Z,78.67
2018-09-22T20:55:27.427Z,78.30
2018-09-22T20:57:55.436Z,78.25
2018-09-22T21:00:23.526Z,77.96
2018-09-22T21:02:53.039Z,77.56
2018-09-22T21:05:21.046Z,77.68
2018-09-22T21:07:49.074Z,77.71
2018-09-22T21:10:17.079Z,78.46
2018-09-22T21:12:45.089Z,78.16
2018-09-22T21:15:13.276Z,78.14
2018-09-22T21:17:41.287Z,78.07
2018-09-22T21:20:09.319Z,78.48
2018-09-22T21:22:37.332Z,78.18
2018-09-22T21:25:06.024Z,77.81
2018-09-22T21:27:34.639Z,78.39
2018-09-22T21:30:02.666Z,77.80
2018-09-22T21:32:30.684Z,77.82
2018-09-22T21:34:58.713Z,77.97
2018-09-22T21:37:26.881Z,78.00
2018-09-22T21:39:55.331Z,77.44
2018-09-22T21:42:23.868Z,77.86
2018-09-22T21:44:51.880Z,77.63
2018-09-22T21:47:19.921Z,78.11
2018-09-22T21:49:47.903Z,77.96
2018-09-22T21:52:16.572Z,77.72
2018-09-22T21:54:44.632Z,77.97
2018-09-22T21:57:12.612Z,78.11
2018-09-22T21:59:40.638Z,77.79
2018-09-22T22:02:08.907Z,78.01
2018-09-22T22:04:36.925Z,77.62
2018-09-22T22:07:06.060Z,77.45
2018-09-22T22:09:34.076Z,77.04
2018-09-22T22:12:03.093Z,77.30
2018-09-22T22:14:31.107Z,77.40
2018-09-22T22:16:59.121Z,77.73
2018-09-22T22:19:27.159Z,77.89
2018-09-22T22:21:55.183Z,77.27
2018-09-22T22:24:24.027Z,77.28
2018-09-22T22:26:52.219Z,77.17
2018-09-22T22:29:20.245Z,77.35
2018-09-22T22:31:48.236Z,77.11
2018-09-22T22:34:16.244Z,77.26
2018-09-22T22:36:44.259Z,77.33
2018-09-22T22:39:12.279Z,76.59
2018-09-22T22:41:40.796Z,76.90
2018-09-22T22:44:08.805Z,77.18
2018-09-22T22:46:36.829Z,77.17
2018-09-22T22:49:04.860Z,77.33
2018-09-22T22:51:32.901Z,76.86
2018-09-22T22:54:00.913Z,77.31
2018-09-22T22:56:29.493Z,77.05
2018-09-22T22:58:57.531Z,76.73
2018-09-22T23:01:25.556Z,76.50
2018-09-22T23:03:54.707Z,76.37
2018-09-22T23:06:23.733Z,77.42
2018-09-22T23:08:51.751Z,77.20
2018-09-22T23:11:19.892Z,77.55
2018-09-22T23:13:47.903Z,77.26
2018-09-22T23:16:15.919Z,77.72
2018-09-22T23:18:43.944Z,76.99
2018-09-22T23:21:11.948Z,77.45
2018-09-22T23:23:40.112Z,77.51
2018-09-22T23:26:08.128Z,77.64
2018-09-22T23:28:36.146Z,77.98
2018-09-22T23:31:04.711Z,77.72
2018-09-22T23:33:32.715Z,77.61
2018-09-22T23:36:00.731Z,77.70
2018-09-22T23:38:28.751Z,77.70
2018-09-22T23:40:56.763Z,78.28
2018-09-22T23:43:24.772Z,78.09
2018-09-22T23:45:52.792Z,78.00
2018-09-22T23:48:20.800Z,77.95
2018-09-22T23:50:48.811Z,77.96
2018-09-22T23:53:16.824Z,77.89
2018-09-22T23:55:44.843Z,78.25
2018-09-22T23:58:12.984Z,77.82
